createdAt,value
2023-03-26T00:08:24.594Z,98267.83
2023-03-26T00:18:31.732Z,98267.30
2023-03-26T00:28:38.215Z,98259.75
2023-03-26T00:38:45.077Z,98249.67
2023-03-26T00:48:51.714Z,98241.57
2023-03-26T00:58:57.821Z,98231.30
2023-03-26T01:09:13.457Z,98223.31
2023-03-26T01:19:30.371Z,98216.45
2023-03-26T01:29:44.126Z,98210.45
2023-03-26T01:39:57.154Z,98205.40
2023-03-26T01:50:03.088Z,98194.54
2023-03-26T02:00:19.431Z,98191.30
2023-03-26T02:10:29.728Z,98183.50
2023-03-26T02:20:35.458Z,98174.98
2023-03-26T02:30:41.206Z,98167.73
2023-03-26T02:40:46.897Z,98160.64
2023-03-26T02:50:54.680Z,98162.55
2023-03-26T03:01:03.336Z,98161.01
2023-03-26T03:11:13.069Z,98158.96
2023-03-26T03:21:21.153Z,98161.95
2023-03-26T03:31:28.439Z,98162.52
2023-03-26T03:41:34.293Z,98155.89
2023-03-26T03:51:40.055Z,98154.55
2023-03-26T04:01:46.851Z,98157.91
2023-03-26T04:11:52.608Z,98159.90
2023-03-26T04:22:02.535Z,98160.48
2023-03-26T04:32:12.710Z,98167.81
2023-03-26T04:42:20.159Z,98159.64
2023-03-26T04:52:26.005Z,98143.03
2023-03-26T05:02:32.670Z,98141.27
2023-03-26T05:12:38.434Z,98140.36
2023-03-26T05:22:44.228Z,98138.44
2023-03-26T05:32:51.993Z,98138.09
2023-03-26T05:42:57.945Z,98144.09
2023-03-26T05:53:03.792Z,98127.03
2023-03-26T06:03:12.719Z,98130.71
2023-03-26T06:13:19.109Z,98136.50
2023-03-26T06:23:24.913Z,98144.61
2023-03-26T06:33:31.238Z,98145.45
2023-03-26T06:43:37.910Z,98138.78
2023-03-26T06:53:43.557Z,98138.25
2023-03-26T07:03:49.656Z,98148.29
2023-03-26T07:13:56.880Z,98165.34
2023-03-26T07:24:04.369Z,98169.04
2023-03-26T07:34:20.877Z,98172.04
2023-03-26T07:44:39.405Z,98174.66
2023-03-26T07:54:46.323Z,98176.86
2023-03-26T08:05:04.235Z,98175.64
2023-03-26T08:15:19.197Z,98179.66
2023-03-26T08:25:33.393Z,98185.62
2023-03-26T08:35:42.374Z,98181.90
2023-03-26T08:46:09.045Z,98179.54
2023-03-26T08:56:25.900Z,98180.94
2023-03-26T09:06:57.549Z,98192.60
2023-03-26T09:17:21.258Z,98183.20
2023-03-26T09:27:49.818Z,98173.22
2023-03-26T09:38:00.658Z,98168.54
2023-03-26T09:48:20.911Z,98164.98
2023-03-26T09:58:43.084Z,98153.27
2023-03-26T10:09:00.576Z,98142.08
2023-03-26T10:19:22.457Z,98144.71
2023-03-26T10:29:50.155Z,98137.09
2023-03-26T10:40:11.288Z,98131.86
2023-03-26T10:50:32.783Z,98125.01
2023-03-26T11:00:44.695Z,98118.02
2023-03-26T11:10:57.692Z,98120.57
2023-03-26T11:21:19.316Z,98125.30
2023-03-26T11:31:40.052Z,98120.21
2023-03-26T11:41:46.390Z,98125.45
2023-03-26T11:51:52.238Z,98126.80
2023-03-26T12:02:15.722Z,98126.56
2023-03-26T12:12:22.724Z,98126.98
2023-03-26T12:22:36.319Z,98109.71
2023-03-26T12:32:46.797Z,98111.29
2023-03-26T12:44:53.289Z,98116.48
2023-03-26T12:53:39.638Z,98129.46
2023-03-26T13:04:09.894Z,98122.31
2023-03-26T13:14:49.869Z,98115.05
2023-03-26T13:25:07.678Z,98111.66
2023-03-26T13:35:22.396Z,98109.27
2023-03-26T13:45:43.959Z,98090.05
2023-03-26T13:55:53.441Z,98082.55
2023-03-26T14:06:05.761Z,98080.06
2023-03-26T14:16:19.957Z,98073.85
2023-03-26T14:26:37.367Z,98072.69
2023-03-26T14:37:27.051Z,98078.80
2023-03-26T14:47:41.442Z,98077.77
2023-03-26T14:58:04.978Z,98073.73
2023-03-26T15:08:41.785Z,98072.55
2023-03-26T15:19:17.830Z,98070.14
2023-03-26T15:30:05.626Z,98068.33
2023-03-26T15:40:36.241Z,98067.15
2023-03-26T15:50:54.189Z,98074.67
2023-03-26T16:01:19.296Z,98072.73
2023-03-26T16:11:37.042Z,98078.98
2023-03-26T16:21:45.971Z,98074.06
2023-03-26T16:32:01.126Z,98074.25
2023-03-26T16:42:12.347Z,98085.76
2023-03-26T16:52:24.197Z,98089.29
2023-03-26T17:02:32.990Z,98083.29
2023-03-26T17:12:42.850Z,98085.08
2023-03-26T17:22:48.862Z,98090.70
2023-03-26T17:32:59.988Z,98099.73
2023-03-26T17:43:06.287Z,98100.95
2023-03-26T17:53:17.932Z,98093.11
2023-03-26T18:03:25.138Z,98090.88
2023-03-26T18:13:43.398Z,98093.34
2023-03-26T18:23:48.866Z,98093.67
2023-03-26T18:33:57.080Z,98087.55
2023-03-26T18:44:04.046Z,98083.05
2023-03-26T18:54:09.475Z,98070.30
2023-03-26T19:04:14.012Z,98063.31
2023-03-26T19:14:19.797Z,98055.20
2023-03-26T19:24:24.321Z,98046.29
2023-03-26T19:34:33.518Z,98054.08
2023-03-26T19:44:39.552Z,98049.94
2023-03-26T19:55:00.236Z,98039.86
2023-03-26T20:05:04.848Z,98042.29
2023-03-26T20:15:19.519Z,98038.05
2023-03-26T20:25:26.058Z,98036.44
2023-03-26T20:35:35.892Z,98036.30
2023-03-26T20:45:41.665Z,98030.80
2023-03-26T20:55:46.283Z,98021.05
2023-03-26T21:05:52.535Z,98012.64
2023-03-26T21:15:58.874Z,98015.34
2023-03-26T21:26:07.387Z,98018.67
2023-03-26T21:36:13.445Z,98020.61
2023-03-26T21:46:18.345Z,98018.25
2023-03-26T21:56:28.949Z,98012.48
2023-03-26T22:06:37.063Z,98009.38
2023-03-26T22:16:41.653Z,98002.96
2023-03-26T22:26:46.155Z,97990.38
2023-03-26T22:39:48.569Z,97972.18
2023-03-26T22:49:54.442Z,97971.37
2023-03-26T23:00:08.372Z,97982.63
2023-03-26T23:10:14.455Z,97973.26
2023-03-26T23:21:23.980Z,97969.63
2023-03-26T23:31:59.844Z,97959.48
2023-03-26T23:42:05.633Z,97960.38
2023-03-26T23:52:38.178Z,97967.05
